createdAt,value
2022-11-14T00:01:14.481Z,61.05
2022-11-14T00:04:03.844Z,60.47
2022-11-14T00:06:53.046Z,60.41
2022-11-14T00:09:43.511Z,60.25
2022-11-14T00:12:33.386Z,59.94
2022-11-14T00:15:22.731Z,58.85
2022-11-14T00:18:12.130Z,60.38
2022-11-14T00:21:01.717Z,65.61
2022-11-14T00:23:51.383Z,65.87
2022-11-14T00:26:40.649Z,64.66
2022-11-14T00:29:30.377Z,63.62
2022-11-14T00:32:20.370Z,62.96
2022-11-14T00:35:10.321Z,62.41
2022-11-14T00:37:59.354Z,62.07
2022-11-14T00:40:48.485Z,62.01
2022-11-14T00:43:37.797Z,62.04
2022-11-14T00:46:28.763Z,61.95
2022-11-14T00:49:18.470Z,61.43
2022-11-14T00:52:08.088Z,61.74
2022-11-14T00:54:58.026Z,61.49
2022-11-14T00:57:47.404Z,61.65
2022-11-14T01:00:36.639Z,60.89
2022-11-14T01:03:26.548Z,60.41
2022-11-14T01:06:16.840Z,60.41
2022-11-14T01:09:06.965Z,60.10
2022-11-14T01:11:56.532Z,60.40
2022-11-14T01:14:46.279Z,60.03
2022-11-14T01:17:35.274Z,59.77
2022-11-14T01:20:24.611Z,59.67
2022-11-14T01:23:15.114Z,58.69
2022-11-14T01:26:05.365Z,60.47
2022-11-14T01:28:54.869Z,64.96
2022-11-14T01:31:45.590Z,65.49
2022-11-14T01:34:34.699Z,64.42
2022-11-14T01:37:23.897Z,63.53
2022-11-14T01:40:13.874Z,62.22
2022-11-14T01:43:13.558Z,61.97
2022-11-14T01:46:04.576Z,61.35
2022-11-14T01:48:55.305Z,61.16
2022-11-14T01:51:46.725Z,61.01
2022-11-14T01:54:37.322Z,61.18
2022-11-14T01:57:28.662Z,60.96
2022-11-14T02:00:18.315Z,60.54
2022-11-14T02:03:07.891Z,60.30
2022-11-14T02:05:58.045Z,60.19
2022-11-14T02:08:47.450Z,60.85
2022-11-14T02:11:39.586Z,61.08
2022-11-14T02:14:29.467Z,61.02
2022-11-14T02:17:29.652Z,61.55
2022-11-14T02:20:21.931Z,61.39
2022-11-14T02:23:11.301Z,61.30
2022-11-14T02:26:00.893Z,60.81
2022-11-14T02:28:51.478Z,60.70
2022-11-14T02:31:41.251Z,60.78
2022-11-14T02:34:31.438Z,61.29
2022-11-14T02:37:20.664Z,61.42
2022-11-14T02:40:11.671Z,61.49
2022-11-14T02:43:01.156Z,61.82
2022-11-14T02:45:50.393Z,62.06
2022-11-14T02:48:39.426Z,61.85
2022-11-14T02:51:28.935Z,61.07
2022-11-14T02:54:18.221Z,61.73
2022-11-14T02:57:07.729Z,62.34
2022-11-14T02:59:57.027Z,62.48
2022-11-14T03:02:46.167Z,62.37
2022-11-14T03:05:35.019Z,62.27
2022-11-14T03:08:23.996Z,62.65
2022-11-14T03:11:13.318Z,62.92
2022-11-14T03:14:02.690Z,62.51
2022-11-14T03:16:51.374Z,62.43
2022-11-14T03:19:40.704Z,62.07
2022-11-14T03:22:30.320Z,62.60
2022-11-14T03:25:19.807Z,62.73
2022-11-14T03:28:09.064Z,62.65
2022-11-14T03:30:59.169Z,62.63
2022-11-14T03:33:48.002Z,62.87
2022-11-14T03:36:37.797Z,62.68
2022-11-14T03:39:27.987Z,62.66
2022-11-14T03:42:17.419Z,62.32
2022-11-14T03:45:07.783Z,62.20
2022-11-14T03:47:57.323Z,61.55
2022-11-14T03:50:46.622Z,61.92
2022-11-14T03:53:36.058Z,62.67
2022-11-14T03:56:25.729Z,62.64
2022-11-14T03:59:15.096Z,62.74
2022-11-14T04:02:04.467Z,63.08
2022-11-14T04:04:53.734Z,63.05
2022-11-14T04:07:42.805Z,62.96
2022-11-14T04:10:31.960Z,62.55
2022-11-14T04:13:20.741Z,62.16
2022-11-14T04:16:09.988Z,61.85
2022-11-14T04:18:59.253Z,62.01
2022-11-14T04:21:48.970Z,61.70
2022-11-14T04:24:37.991Z,61.63
2022-11-14T04:27:27.377Z,62.95
2022-11-14T04:30:17.027Z,62.44
2022-11-14T04:33:07.433Z,62.05
2022-11-14T04:35:56.804Z,61.57
2022-11-14T04:38:46.479Z,61.77
2022-11-14T04:41:35.698Z,61.95
2022-11-14T04:44:25.229Z,62.10
2022-11-14T04:47:14.280Z,62.23
2022-11-14T04:50:03.862Z,62.51
2022-11-14T04:52:54.660Z,62.60
2022-11-14T04:55:45.205Z,61.89
2022-11-14T04:58:34.347Z,61.85
2022-11-14T05:01:23.719Z,61.52
2022-11-14T05:04:13.268Z,61.22
2022-11-14T05:07:02.493Z,61.55
2022-11-14T05:09:51.597Z,61.74
2022-11-14T05:12:40.922Z,61.59
2022-11-14T05:15:29.836Z,62.20
2022-11-14T05:18:19.302Z,62.51
2022-11-14T05:21:08.580Z,62.39
2022-11-14T05:23:58.140Z,62.37
2022-11-14T05:26:47.511Z,62.13
2022-11-14T05:29:37.058Z,62.17
2022-11-14T05:32:26.625Z,62.49
2022-11-14T05:35:16.130Z,62.31
2022-11-14T05:38:05.608Z,62.29
2022-11-14T05:40:55.382Z,61.94
2022-11-14T05:43:44.714Z,62.09
2022-11-14T05:46:34.089Z,62.00
2022-11-14T05:49:24.213Z,61.14
2022-11-14T05:52:14.310Z,61.71
2022-11-14T05:55:04.077Z,61.62
2022-11-14T05:57:53.297Z,61.36
2022-11-14T06:00:50.737Z,60.98
2022-11-14T06:03:43.615Z,60.49
2022-11-14T06:06:33.227Z,60.02
2022-11-14T06:09:22.496Z,58.72
2022-11-14T06:12:11.636Z,58.86
2022-11-14T06:15:00.894Z,63.93
2022-11-14T06:17:49.995Z,64.65
2022-11-14T06:20:39.091Z,63.83
2022-11-14T06:23:28.434Z,62.60
2022-11-14T06:26:21.133Z,61.85
2022-11-14T06:29:10.970Z,61.75
2022-11-14T06:32:00.888Z,61.89
2022-11-14T06:34:50.517Z,61.81
2022-11-14T06:37:39.779Z,61.72
2022-11-14T06:40:29.310Z,61.50
2022-11-14T06:43:18.153Z,61.32
2022-11-14T06:46:08.407Z,61.32
2022-11-14T06:48:57.728Z,61.14
2022-11-14T06:51:47.214Z,60.84
2022-11-14T06:54:36.823Z,61.02
2022-11-14T06:57:26.047Z,61.34
2022-11-14T07:00:16.784Z,61.49
2022-11-14T07:03:05.870Z,61.67
2022-11-14T07:05:55.178Z,61.66
2022-11-14T07:08:44.693Z,61.28
2022-11-14T07:11:36.416Z,61.76
2022-11-14T07:14:26.299Z,62.17
2022-11-14T07:17:15.358Z,62.96
2022-11-14T07:20:05.429Z,62.50
2022-11-14T07:22:54.555Z,62.32
2022-11-14T07:25:43.936Z,62.37
2022-11-14T07:28:33.594Z,61.94
2022-11-14T07:31:23.575Z,61.72
2022-11-14T07:34:13.986Z,61.32
2022-11-14T07:37:03.613Z,60.76
2022-11-14T07:39:52.761Z,60.27
2022-11-14T07:42:41.947Z,60.33
2022-11-14T07:45:31.409Z,60.40
2022-11-14T07:48:22.235Z,60.40
2022-11-14T07:51:17.062Z,58.66
2022-11-14T07:54:06.697Z,60.38
2022-11-14T07:56:56.824Z,64.52
2022-11-14T07:59:46.417Z,64.70
2022-11-14T08:02:35.414Z,63.28
2022-11-14T08:05:24.691Z,62.63
2022-11-14T08:08:14.058Z,62.10
2022-11-14T08:11:03.838Z,61.92
2022-11-14T08:13:52.792Z,61.44
2022-11-14T08:16:42.372Z,60.96
2022-11-14T08:19:31.222Z,60.52
2022-11-14T08:22:20.965Z,60.11
2022-11-14T08:25:10.705Z,60.01
2022-11-14T08:28:03.176Z,60.09
2022-11-14T08:30:52.198Z,59.80
2022-11-14T08:33:42.075Z,59.77
2022-11-14T08:36:30.943Z,62.51
2022-11-14T08:39:21.327Z,66.31
2022-11-14T08:42:10.496Z,65.02
2022-11-14T08:44:59.759Z,62.98
2022-11-14T09:01:22.957Z,60.51
2022-11-14T09:04:12.220Z,61.23
2022-11-14T09:07:01.950Z,65.76
2022-11-14T09:09:51.114Z,65.78
2022-11-14T09:12:40.741Z,64.40
2022-11-14T09:15:30.261Z,63.23
2022-11-14T09:18:20.486Z,62.33
2022-11-14T09:21:10.127Z,61.52
2022-11-14T09:24:01.806Z,61.30
2022-11-14T09:26:56.574Z,61.02
2022-11-14T09:29:46.693Z,60.74
2022-11-14T09:32:36.110Z,60.07
2022-11-14T09:35:25.172Z,59.50
2022-11-14T09:38:15.050Z,63.67
2022-11-14T09:41:11.383Z,63.98
2022-11-14T09:44:19.140Z,63.23
2022-11-14T09:47:16.629Z,62.52
2022-11-14T09:50:13.084Z,61.36
2022-11-14T09:53:04.867Z,60.84
2022-11-14T09:55:54.090Z,60.54
2022-11-14T09:58:44.192Z,60.53
2022-11-14T10:01:42.286Z,60.34
2022-11-14T10:04:38.159Z,59.30
2022-11-14T10:07:30.635Z,58.39
2022-11-14T10:10:25.282Z,63.18
2022-11-14T10:13:18.877Z,64.36
2022-11-14T10:16:12.684Z,62.85
2022-11-14T10:19:10.846Z,61.99
2022-11-14T10:22:10.658Z,60.95
2022-11-14T10:25:13.825Z,60.08
2022-11-14T10:38:45.350Z,63.63
2022-11-14T10:41:56.198Z,62.09
2022-11-14T10:44:50.709Z,61.10
2022-11-14T10:47:41.212Z,60.69
2022-11-14T10:50:35.238Z,60.59
2022-11-14T10:53:28.508Z,59.96
2022-11-14T10:56:17.710Z,59.29
2022-11-14T10:59:07.079Z,61.73
2022-11-14T11:01:57.219Z,65.72
2022-11-14T11:04:46.736Z,65.01
2022-11-14T11:08:21.485Z,62.26
2022-11-14T11:11:33.107Z,59.89
2022-11-14T11:14:22.633Z,60.81
2022-11-14T11:17:20.833Z,61.23
2022-11-14T11:20:23.717Z,60.76
2022-11-14T11:23:18.788Z,60.08
2022-11-14T11:26:09.870Z,60.36
2022-11-14T11:29:10.068Z,59.98
2022-11-14T11:32:00.005Z,60.08
2022-11-14T11:34:49.493Z,59.98
2022-11-14T11:37:41.669Z,60.83
2022-11-14T11:40:31.358Z,60.23
2022-11-14T11:43:41.329Z,61.02
2022-11-14T11:46:33.397Z,60.99
2022-11-14T11:49:26.345Z,61.11
2022-11-14T11:52:19.114Z,61.17
2022-11-14T11:55:16.894Z,60.67
2022-11-14T11:58:08.147Z,59.61
2022-11-14T12:00:58.521Z,58.64
2022-11-14T12:03:49.480Z,61.36
2022-11-14T12:06:42.477Z,65.92
2022-11-14T12:10:03.652Z,64.88
2022-11-14T12:13:00.699Z,63.50
2022-11-14T12:15:55.425Z,62.64
2022-11-14T12:18:57.841Z,62.91
2022-11-14T12:22:02.200Z,62.16
2022-11-14T12:24:56.565Z,61.46
2022-11-14T12:27:59.326Z,60.89
2022-11-14T12:30:49.894Z,60.97
2022-11-14T12:33:40.661Z,60.65
2022-11-14T12:36:31.792Z,60.75
2022-11-14T12:39:25.598Z,60.87
2022-11-14T12:42:20.301Z,60.34
2022-11-14T12:45:38.393Z,60.62
2022-11-14T12:48:33.183Z,60.39
2022-11-14T12:51:47.642Z,60.56
2022-11-14T12:54:47.663Z,61.22
2022-11-14T12:57:51.080Z,61.24
2022-11-14T13:00:48.477Z,60.76
2022-11-14T13:03:48.745Z,60.31
2022-11-14T13:06:45.461Z,60.66
2022-11-14T13:09:43.151Z,61.04
2022-11-14T13:12:51.168Z,60.83
2022-11-14T13:16:07.569Z,60.66
2022-11-14T13:19:15.158Z,60.79
2022-11-14T13:22:36.383Z,60.76
2022-11-14T13:25:26.274Z,60.22
2022-11-14T13:28:32.526Z,60.09
2022-11-14T13:31:22.971Z,59.92
2022-11-14T13:34:34.305Z,59.81
2022-11-14T13:37:32.793Z,59.94
2022-11-14T13:40:26.760Z,60.12
2022-11-14T13:43:20.904Z,60.37
2022-11-14T13:46:08.417Z,60.85
2022-11-14T13:49:12.517Z,61.18
2022-11-14T13:52:02.569Z,60.85
2022-11-14T13:54:52.145Z,60.62
2022-11-14T13:57:47.808Z,60.63
2022-11-14T14:00:49.306Z,60.71
2022-11-14T14:03:43.967Z,59.64
2022-11-14T14:06:41.881Z,59.63
2022-11-14T14:09:33.930Z,59.50
2022-11-14T14:12:40.832Z,59.64
2022-11-14T14:15:32.449Z,59.80
2022-11-14T14:18:28.443Z,59.65
2022-11-14T14:21:26.155Z,59.49
2022-11-14T14:24:20.153Z,60.77
2022-11-14T14:27:15.595Z,66.93
2022-11-14T14:30:09.076Z,66.31
2022-11-14T14:33:12.868Z,64.42
2022-11-14T14:36:02.242Z,63.37
2022-11-14T14:38:52.023Z,62.17
2022-11-14T14:41:42.318Z,62.27
2022-11-14T14:44:33.329Z,62.02
2022-11-14T14:47:34.148Z,61.60
2022-11-14T14:50:24.378Z,61.15
2022-11-14T14:53:21.207Z,61.00
2022-11-14T14:56:18.967Z,61.41
2022-11-14T14:59:21.072Z,60.97
2022-11-14T15:02:14.750Z,60.98
2022-11-14T15:05:04.934Z,61.05
2022-11-14T15:07:56.872Z,60.65
2022-11-14T15:10:46.293Z,60.77
2022-11-14T15:13:36.436Z,60.78
2022-11-14T15:16:26.388Z,61.34
2022-11-14T15:19:16.207Z,61.71
2022-11-14T15:22:06.556Z,62.04
2022-11-14T15:25:18.133Z,62.12
2022-11-14T15:28:15.033Z,61.39
2022-11-14T15:31:05.225Z,61.39
2022-11-14T15:34:05.052Z,61.69
2022-11-14T15:37:23.222Z,61.32
2022-11-14T15:40:24.398Z,61.37
2022-11-14T15:43:30.841Z,61.39
2022-11-14T15:46:28.973Z,61.29
2022-11-14T15:49:22.863Z,61.14
2022-11-14T15:52:18.650Z,61.01
2022-11-14T15:55:13.755Z,60.70
2022-11-14T16:01:15.422Z,60.20
2022-11-14T16:04:05.247Z,60.36
2022-11-14T16:06:54.436Z,60.37
2022-11-14T16:09:44.381Z,59.86
2022-11-14T16:12:33.895Z,59.82
2022-11-14T16:15:23.321Z,59.99
2022-11-14T16:18:13.257Z,60.16
2022-11-14T16:21:02.885Z,60.55
2022-11-14T16:23:51.788Z,61.07
2022-11-14T16:26:41.497Z,61.92
2022-11-14T16:29:30.520Z,61.55
2022-11-14T16:32:20.354Z,60.88
2022-11-14T16:35:13.463Z,60.73
2022-11-14T16:38:03.513Z,60.96
2022-11-14T16:40:53.535Z,61.12
2022-11-14T16:43:43.821Z,61.42
2022-11-14T16:46:32.888Z,61.18
2022-11-14T16:49:22.806Z,61.11
2022-11-14T16:52:13.132Z,61.08
2022-11-14T16:55:03.152Z,60.59
2022-11-14T16:57:52.313Z,60.57
2022-11-14T17:00:45.206Z,60.60
2022-11-14T17:03:34.427Z,60.84
2022-11-14T17:06:24.273Z,60.78
2022-11-14T17:09:14.634Z,60.97
2022-11-14T17:12:04.411Z,61.01
2022-11-14T17:14:54.879Z,60.65
2022-11-14T17:17:50.444Z,60.15
2022-11-14T17:20:39.932Z,59.62
2022-11-14T17:23:29.951Z,60.00
2022-11-14T17:26:19.165Z,60.50
2022-11-14T17:29:08.846Z,60.71
2022-11-14T17:31:58.073Z,61.07
2022-11-14T17:34:47.546Z,60.29
2022-11-14T17:37:36.710Z,60.82
2022-11-14T17:40:27.010Z,60.62
2022-11-14T17:43:17.393Z,60.90
2022-11-14T17:46:11.205Z,61.03
2022-11-14T17:49:04.834Z,61.03
2022-11-14T17:51:54.126Z,61.00
2022-11-14T17:54:42.960Z,61.33
2022-11-14T17:57:32.640Z,61.51
2022-11-14T18:00:21.895Z,62.21
2022-11-14T18:03:11.776Z,62.28
2022-11-14T18:06:07.355Z,62.00
2022-11-14T18:08:57.794Z,62.01
2022-11-14T18:11:47.039Z,62.25
2022-11-14T18:14:37.145Z,62.30
2022-11-14T18:17:26.559Z,62.51
2022-11-14T18:20:15.786Z,62.03
2022-11-14T18:23:05.153Z,62.47
2022-11-14T18:25:54.706Z,62.58
2022-11-14T18:28:46.812Z,62.31
2022-11-14T18:31:37.155Z,61.86
2022-11-14T18:34:27.036Z,62.06
2022-11-14T18:37:16.624Z,62.14
2022-11-14T18:40:06.328Z,62.16
2022-11-14T18:42:56.890Z,61.81
2022-11-14T18:45:46.150Z,61.83
2022-11-14T18:48:36.142Z,62.18
2022-11-14T18:51:26.390Z,62.42
2022-11-14T18:54:17.843Z,62.43
2022-11-14T18:57:07.526Z,62.42
2022-11-14T18:59:57.263Z,62.34
2022-11-14T19:02:50.177Z,62.46
2022-11-14T19:05:40.040Z,62.33
2022-11-14T19:08:29.617Z,62.77
2022-11-14T19:11:37.203Z,62.63
2022-11-14T19:14:26.248Z,62.78
2022-11-14T19:17:18.983Z,62.44
2022-11-14T19:20:14.155Z,61.78
2022-11-14T19:23:04.370Z,61.56
2022-11-14T19:25:53.073Z,61.55
2022-11-14T19:28:43.153Z,61.83
2022-11-14T19:31:33.276Z,61.77
2022-11-14T19:34:22.907Z,61.66
2022-11-14T19:37:11.982Z,61.35
2022-11-14T19:40:01.767Z,61.60
2022-11-14T19:42:54.170Z,61.72
2022-11-14T19:45:43.678Z,61.76
2022-11-14T19:48:33.156Z,61.53
2022-11-14T19:51:23.470Z,60.89
2022-11-14T19:54:12.729Z,61.05
2022-11-14T19:57:02.195Z,61.54
2022-11-14T19:59:52.577Z,61.43
2022-11-14T20:02:42.197Z,61.39
2022-11-14T20:05:33.090Z,62.26
2022-11-14T20:08:23.042Z,62.16
2022-11-14T20:11:12.433Z,62.10
2022-11-14T20:14:03.131Z,62.60
2022-11-14T20:16:52.197Z,63.06
2022-11-14T20:19:41.282Z,62.60
2022-11-14T20:22:31.083Z,62.54
2022-11-14T20:25:20.503Z,62.74
2022-11-14T20:28:12.219Z,62.88
2022-11-14T20:31:03.430Z,63.00
2022-11-14T20:33:53.445Z,62.96
2022-11-14T20:37:09.452Z,62.97
2022-11-14T20:39:53.145Z,62.73
2022-11-14T20:42:42.405Z,61.96
2022-11-14T20:45:32.104Z,61.81
2022-11-14T20:48:21.417Z,62.25
2022-11-14T20:51:12.011Z,62.14
2022-11-14T20:54:01.522Z,62.19
2022-11-14T20:56:51.200Z,61.65
2022-11-14T20:59:40.267Z,61.65
2022-11-14T21:02:29.769Z,61.71
2022-11-14T21:05:19.259Z,61.71
2022-11-14T21:08:08.689Z,61.29
2022-11-14T21:11:01.189Z,61.89
2022-11-14T21:13:59.822Z,61.95
2022-11-14T21:16:48.771Z,62.11
2022-11-14T21:19:38.038Z,62.08
2022-11-14T21:22:27.291Z,61.84
2022-11-14T21:25:16.879Z,61.44
2022-11-14T21:28:06.185Z,61.58
2022-11-14T21:30:55.728Z,61.38
2022-11-14T21:33:45.508Z,60.99
2022-11-14T21:36:44.951Z,60.97
2022-11-14T21:39:35.915Z,60.71
2022-11-14T21:42:25.316Z,60.62
2022-11-14T21:45:16.088Z,60.23
2022-11-14T21:48:06.008Z,60.57
2022-11-14T21:50:55.344Z,60.35
2022-11-14T21:53:45.843Z,60.35
2022-11-14T21:56:35.947Z,60.55
2022-11-14T21:59:27.672Z,60.48
2022-11-14T22:02:34.534Z,60.60
2022-11-14T22:05:23.823Z,60.83
2022-11-14T22:08:12.865Z,60.77
2022-11-14T22:11:04.599Z,60.78
2022-11-14T22:13:53.548Z,60.50
2022-11-14T22:16:42.709Z,60.36
2022-11-14T22:19:32.452Z,60.53
2022-11-14T22:22:21.829Z,60.72
2022-11-14T22:25:11.689Z,60.65
2022-11-14T22:28:00.813Z,60.37
2022-11-14T22:30:49.967Z,60.50
2022-11-14T22:33:44.098Z,60.32
2022-11-14T22:36:36.705Z,60.08
2022-11-14T22:39:26.242Z,60.10
2022-11-14T22:42:15.435Z,59.66
2022-11-14T22:45:06.159Z,58.32
2022-11-14T22:47:58.992Z,58.83
2022-11-14T22:50:48.060Z,65.01
2022-11-14T22:53:37.974Z,66.06
2022-11-14T22:56:28.236Z,65.13
2022-11-14T22:59:17.546Z,64.00
2022-11-14T23:02:06.862Z,63.14
2022-11-14T23:04:56.233Z,62.36
2022-11-14T23:07:45.399Z,61.75
2022-11-14T23:10:35.942Z,61.61
2022-11-14T23:13:24.954Z,60.91
2022-11-14T23:16:15.055Z,60.99
2022-11-14T23:19:05.537Z,60.72
2022-11-14T23:21:55.017Z,60.46
2022-11-14T23:24:44.591Z,60.47
2022-11-14T23:27:34.673Z,60.21
2022-11-14T23:30:23.882Z,59.88
2022-11-14T23:33:13.109Z,59.75
2022-11-14T23:36:02.921Z,59.69
2022-11-14T23:38:52.810Z,59.25
2022-11-14T23:41:42.037Z,57.85
2022-11-14T23:44:30.997Z,60.17
2022-11-14T23:47:20.464Z,65.67
2022-11-14T23:50:10.613Z,66.90
2022-11-14T23:52:59.621Z,64.66
2022-11-14T23:55:55.124Z,63.27
2022-11-14T23:58:44.502Z,63.08
